Salem, OR (97304)

9:56 PM PDT on April 01, 2015 (GMT -0700)
Popcorn Hill | | Change Station
CLOSE
Current Station
Personal Weather Station
Location: Salem, OR
Elevation: 635 ft
Nearby Weather Stations

Elev 635 ft 44.96 °N, 123.11 °W | Updated 9 minutes ago

Overcast
Overcast
42.5 °F
Feels Like 42 °F
N
1.0
Wind Variable Wind from NNW
Gusts 4.0 mph

Today
High -- | Low -- °F
--% Chance of Precip.
Yesterday
High -- | Low -- °F
Precip. -- in
6:53 AM 7:40 PM
Waxing Gibbous, 95% visible
Pressure 30.34 in
Visibility 10.0 miles
Clouds Scattered Clouds 4900 ft
Windchill 42 °F
Dew Point 41 °F
Humidity 94%
Rainfall 0.17 in
Snow Depth Not available.
UV 0 out of 12
Pollen 4.40 out of 12
Air Quality Not available.
Flu Activity Not available.
METAR KSLE 020356Z 18003KT 10SM SCT049 06/04 A3034 RMK AO2 SLP274 T00560044

More Conditions Fewer Conditions

Pressure 30.34 in
Visibility 10.0 miles
Clouds Scattered Clouds 4900 ft
Windchill 42 °F
Dew Point 41 °F
Humidity 94%
Rainfall 0.17 in
Snow Depth Not available.
UV 0 out of 12
Pollen 4.40 out of 12
Air Quality Not available.
Flu Activity Not available.
METAR KSLE 020356Z 18003KT 10SM SCT049 06/04 A3034 RMK AO2 SLP274 T00560044

More Conditions Fewer Conditions

10-Day Weather Forecast

Almanac

Astronomy

Apr. 01, 2015 Rise Set
Actual Time
Civil Twilight
Nautical Twilight
Astronomical Twilight
Moon
Length of Visible Light
Length of Day
Tomorrow will be .
, % of the Moon is Illuminated

Today's Extremes

State Highs State Lows

Community

WunderPhotos

Upload Photos

1,810,198 photos uploaded!

WunderBlogs® & News

Nearby

Air Quality

  Air Quality AQ Index Pollutant
Not available.

Snow Depth

Station Depth Elevation

Earthquake Activity

City Distance Mag. Time & Date
Minimum magnitude displayed is 2.5.

Coastal Water Temperatures

Place Temperature

Stations

Nearby Weather Stations

Station Location Temp. Windchill Dew Point Humidity Wind Precip. Elev Updated Type